Terminal Aerodrome Forecast
Issued by NWS

Current Version | Previous Version | Graphics & Text | Print | Product List | Glossary On
Versions: 1 2 3 4 5 6 7 8 9 10 11 12 13 14 15 16 17 18
474
FTUS41 KILN 201708 AAA
TAFLCK
TAF AMD
KLCK 201708Z 2017/2112 22019G29KT P6SM SCT050 BKN250
     FM210100 23014G20KT P6SM -SHRA VCTS BKN040CB
      TEMPO 2103/2105 3SM -TSRA BKN030CB
     FM210700 29009KT P6SM BKN015=

USA.gov is the U.S. government's official web portal to all federal, state and local government web resources and services.